createdAt,value
2023-05-15T00:01:48.622Z,9.18
2023-05-15T00:04:15.040Z,10.05
2023-05-15T00:06:41.465Z,9.40
2023-05-15T00:09:08.771Z,8.48
2023-05-15T00:14:01.544Z,11.25
2023-05-15T00:16:28.542Z,10.05
2023-05-15T00:18:55.017Z,9.52
2023-05-15T00:21:21.456Z,8.60
2023-05-15T00:23:47.857Z,10.00
2023-05-15T00:26:15.765Z,10.05
2023-05-15T00:28:42.177Z,8.95
2023-05-15T00:31:09.009Z,11.15
2023-05-15T00:33:35.554Z,9.70
2023-05-15T00:36:02.996Z,8.27
2023-05-15T00:38:29.392Z,9.32
2023-05-15T00:40:56.203Z,9.68
2023-05-15T00:43:23.668Z,8.63
2023-05-15T00:45:50.378Z,9.82
2023-05-15T00:48:16.969Z,10.50
2023-05-15T00:50:43.902Z,9.60
2023-05-15T00:53:10.930Z,9.85
2023-05-15T00:55:37.554Z,10.38
2023-05-15T00:58:04.177Z,10.38
2023-05-15T01:00:33.007Z,10.90
2023-05-15T01:02:59.854Z,13.85
2023-05-15T01:05:27.629Z,9.70
2023-05-15T01:08:14.303Z,11.35
2023-05-15T01:10:42.871Z,9.98
2023-05-15T01:13:10.090Z,9.02
2023-05-15T01:15:36.505Z,11.00
2023-05-15T01:18:03.461Z,9.45
2023-05-15T01:20:34.391Z,9.55
2023-05-15T01:23:08.033Z,10.18
2023-05-15T01:25:43.666Z,10.18
2023-05-15T01:28:12.272Z,9.48
2023-05-15T01:30:40.692Z,9.93
2023-05-15T01:33:17.279Z,11.85
2023-05-15T01:35:45.372Z,11.95
2023-05-15T01:38:19.172Z,10.93
2023-05-15T01:40:47.702Z,10.57
2023-05-15T01:43:27.697Z,9.68
2023-05-15T01:45:55.102Z,9.48
2023-05-15T01:48:22.775Z,10.80
2023-05-15T01:50:50.936Z,10.00
2023-05-15T01:53:18.855Z,10.50
2023-05-15T01:55:45.613Z,10.77
2023-05-15T01:58:13.272Z,11.70
2023-05-15T02:00:39.998Z,11.80
2023-05-15T02:03:06.948Z,12.15
2023-05-15T02:05:34.228Z,12.45
2023-05-15T02:08:02.309Z,12.40
2023-05-15T02:10:28.951Z,10.88
2023-05-15T02:12:55.703Z,12.45
2023-05-15T02:15:23.727Z,10.25
2023-05-15T02:17:50.866Z,13.50
2023-05-15T02:20:17.551Z,17.30
2023-05-15T02:22:43.969Z,12.10
2023-05-15T02:25:10.513Z,12.65
2023-05-15T02:27:43.098Z,12.05
2023-05-15T02:30:27.164Z,12.15
2023-05-15T02:32:59.212Z,10.63
2023-05-15T02:35:33.714Z,13.93
2023-05-15T02:38:02.676Z,14.60
2023-05-15T02:40:30.217Z,15.57
2023-05-15T02:42:56.909Z,12.98
2023-05-15T02:45:24.210Z,13.35
2023-05-15T02:47:51.598Z,13.50
2023-05-15T02:50:18.524Z,13.23
2023-05-15T02:52:44.993Z,14.88
2023-05-15T02:55:11.404Z,11.95
2023-05-15T02:57:37.947Z,12.77
2023-05-15T03:00:07.414Z,15.40
2023-05-15T03:02:33.998Z,12.63
2023-05-15T03:05:00.682Z,12.00
2023-05-15T03:07:27.216Z,13.20
2023-05-15T03:09:53.722Z,14.77
2023-05-15T03:12:20.108Z,13.93
2023-05-15T03:14:46.552Z,13.93
2023-05-15T03:17:13.001Z,15.23
2023-05-15T03:19:39.415Z,14.00
2023-05-15T03:22:06.035Z,18.85
2023-05-15T03:24:32.478Z,18.30
2023-05-15T03:26:59.295Z,18.05
2023-05-15T03:29:25.808Z,15.70
2023-05-15T03:31:52.388Z,15.20
2023-05-15T03:34:18.899Z,15.65
2023-05-15T03:36:45.571Z,17.00
2023-05-15T03:39:12.060Z,14.63
2023-05-15T03:41:38.527Z,15.85
2023-05-15T03:44:05.028Z,13.82
2023-05-15T03:46:31.484Z,16.75
2023-05-15T03:48:58.329Z,14.05
2023-05-15T03:51:26.101Z,16.33
2023-05-15T03:53:53.373Z,15.65
2023-05-15T03:56:22.708Z,14.15
2023-05-15T03:58:49.196Z,15.05
2023-05-15T04:01:15.661Z,16.60
2023-05-15T04:03:42.182Z,16.13
2023-05-15T04:06:08.696Z,16.00
2023-05-15T04:08:35.174Z,14.65
2023-05-15T04:11:01.672Z,15.05
2023-05-15T04:13:28.092Z,14.02
2023-05-15T04:15:55.133Z,17.65
2023-05-15T04:18:21.618Z,15.80
2023-05-15T04:20:48.116Z,14.85
2023-05-15T04:23:14.567Z,12.75
2023-05-15T04:25:46.082Z,15.60
2023-05-15T04:28:13.053Z,15.30
2023-05-15T04:30:39.635Z,15.30
2023-05-15T04:33:06.136Z,14.10
2023-05-15T04:35:32.684Z,19.70
2023-05-15T04:37:59.142Z,21.05
2023-05-15T04:40:25.678Z,16.55
2023-05-15T04:42:52.102Z,16.02
2023-05-15T04:45:18.741Z,17.05
2023-05-15T04:47:45.279Z,19.30
2023-05-15T04:50:11.829Z,16.52
2023-05-15T04:52:38.327Z,16.23
2023-05-15T04:55:05.058Z,23.05
2023-05-15T04:57:31.492Z,18.88
2023-05-15T04:59:58.198Z,16.10
2023-05-15T05:02:24.828Z,17.30
2023-05-15T05:04:51.390Z,18.10
2023-05-15T05:07:17.838Z,14.90
2023-05-15T05:09:44.486Z,16.13
2023-05-15T05:12:11.021Z,15.02
2023-05-15T05:14:37.539Z,17.27
2023-05-15T05:17:04.147Z,16.35
2023-05-15T05:19:30.934Z,17.38
2023-05-15T05:22:01.355Z,15.55
2023-05-15T05:24:28.487Z,14.68
2023-05-15T05:26:55.189Z,17.10
2023-05-15T05:29:21.612Z,13.38
2023-05-15T05:31:48.115Z,15.85
2023-05-15T05:34:14.734Z,16.05
2023-05-15T05:36:41.338Z,14.40
2023-05-15T05:39:07.855Z,14.68
2023-05-15T05:41:34.826Z,15.88
2023-05-15T05:44:01.374Z,17.35
2023-05-15T05:46:28.222Z,15.60
2023-05-15T05:48:54.892Z,14.93
2023-05-15T05:51:21.561Z,14.98
2023-05-15T05:53:48.047Z,16.25
2023-05-15T05:56:14.528Z,14.98
2023-05-15T05:58:41.141Z,23.83
2023-05-15T06:01:07.795Z,14.45
2023-05-15T06:03:34.591Z,16.50
2023-05-15T06:06:01.204Z,18.63
2023-05-15T06:08:29.443Z,20.67
2023-05-15T06:10:56.020Z,17.70
2023-05-15T06:13:23.106Z,18.05
2023-05-15T06:15:49.590Z,13.70
2023-05-15T06:18:16.069Z,15.65
2023-05-15T06:20:43.092Z,13.70
2023-05-15T06:23:09.748Z,15.25
2023-05-15T06:25:36.540Z,12.98
2023-05-15T06:28:03.575Z,15.85
2023-05-15T06:30:30.122Z,11.43
2023-05-15T06:32:56.639Z,13.52
2023-05-15T06:35:26.377Z,12.15
2023-05-15T06:37:53.317Z,12.70
2023-05-15T06:40:20.554Z,12.45
2023-05-15T06:42:47.299Z,12.07
2023-05-15T06:45:13.936Z,10.45
2023-05-15T06:47:40.520Z,11.00
2023-05-15T06:50:07.337Z,10.98
2023-05-15T06:52:33.816Z,11.05
2023-05-15T06:55:00.246Z,10.73
2023-05-15T06:57:26.926Z,10.55
2023-05-15T06:59:53.437Z,11.80
2023-05-15T07:02:20.055Z,11.88
2023-05-15T07:04:46.569Z,10.77
2023-05-15T07:07:13.130Z,12.35
2023-05-15T07:09:39.712Z,12.27
2023-05-15T07:12:06.420Z,11.30
2023-05-15T07:14:34.083Z,10.00
2023-05-15T07:17:00.695Z,11.35
2023-05-15T07:19:27.245Z,10.38
2023-05-15T07:21:53.793Z,9.77
2023-05-15T07:24:20.210Z,10.32
2023-05-15T07:26:57.594Z,11.30
2023-05-15T07:29:25.058Z,10.80
2023-05-15T07:31:51.570Z,11.38
2023-05-15T07:34:18.071Z,12.52
2023-05-15T07:36:44.681Z,12.85
2023-05-15T07:39:11.225Z,15.35
2023-05-15T07:41:37.752Z,13.43
2023-05-15T07:44:04.328Z,11.85
2023-05-15T07:46:30.810Z,12.93
2023-05-15T07:48:57.370Z,15.48
2023-05-15T07:51:23.850Z,14.65
2023-05-15T07:53:50.578Z,15.32
2023-05-15T07:56:17.102Z,13.18
2023-05-15T07:58:43.704Z,12.88
2023-05-15T08:01:10.299Z,13.52
2023-05-15T08:03:36.920Z,13.13
2023-05-15T08:06:03.710Z,12.57
2023-05-15T08:08:30.859Z,12.18
2023-05-15T08:10:57.327Z,12.50
2023-05-15T08:13:24.011Z,12.30
2023-05-15T08:15:50.636Z,14.45
2023-05-15T08:18:17.191Z,12.95
2023-05-15T08:20:43.770Z,13.57
2023-05-15T08:23:10.283Z,14.32
2023-05-15T08:25:36.774Z,13.80
2023-05-15T08:28:04.383Z,11.75
2023-05-15T08:30:30.828Z,13.70
2023-05-15T08:32:57.352Z,10.80
2023-05-15T08:35:23.979Z,10.50
2023-05-15T08:37:50.720Z,12.30
2023-05-15T08:40:18.618Z,12.48
2023-05-15T08:42:53.845Z,11.70
2023-05-15T08:45:20.415Z,11.80
2023-05-15T08:47:47.105Z,10.48
2023-05-15T08:50:15.399Z,10.30
2023-05-15T08:52:42.930Z,11.68
2023-05-15T08:55:10.881Z,11.45
2023-05-15T08:57:38.924Z,11.98
2023-05-15T09:00:09.123Z,11.05
2023-05-15T09:02:36.827Z,10.73
2023-05-15T09:05:03.689Z,11.05
2023-05-15T09:07:33.705Z,11.02
2023-05-15T09:10:01.452Z,11.00
2023-05-15T09:12:28.299Z,10.55
2023-05-15T09:15:10.027Z,10.90
2023-05-15T09:17:38.797Z,10.35
2023-05-15T09:20:08.622Z,10.13
2023-05-15T09:22:36.291Z,10.10
2023-05-15T09:25:04.140Z,9.63
2023-05-15T09:27:30.850Z,9.50
2023-05-15T09:30:07.811Z,11.00
2023-05-15T09:32:34.409Z,9.65
2023-05-15T09:35:00.912Z,11.32
2023-05-15T09:37:28.903Z,10.38
2023-05-15T09:39:55.810Z,10.88
2023-05-15T09:42:24.561Z,11.30
2023-05-15T09:44:51.170Z,9.35
2023-05-15T09:47:18.038Z,9.90
2023-05-15T09:49:45.367Z,10.10
2023-05-15T09:52:12.022Z,10.70
2023-05-15T09:54:38.746Z,9.02
2023-05-15T09:57:09.691Z,8.77
2023-05-15T09:59:36.206Z,9.60
2023-05-15T10:02:02.721Z,10.57
2023-05-15T10:04:34.387Z,10.52
2023-05-15T10:07:00.832Z,9.00
2023-05-15T10:09:30.117Z,10.90
2023-05-15T10:11:58.540Z,10.32
2023-05-15T10:14:26.519Z,9.15
2023-05-15T10:16:53.222Z,11.15
2023-05-15T10:19:21.781Z,10.75
2023-05-15T10:21:48.538Z,9.77
2023-05-15T10:24:16.381Z,9.70
2023-05-15T10:26:43.518Z,11.32
2023-05-15T10:29:13.885Z,8.85
2023-05-15T10:31:40.876Z,8.45
2023-05-15T10:34:08.266Z,9.70
2023-05-15T10:39:02.056Z,9.30
2023-05-15T10:41:32.879Z,10.23
2023-05-15T10:43:59.789Z,9.18
2023-05-15T10:46:27.521Z,8.90
2023-05-15T10:48:54.228Z,9.23
2023-05-15T10:51:33.007Z,10.02
2023-05-15T10:54:00.427Z,9.98
2023-05-15T10:56:29.421Z,9.57
2023-05-15T10:58:58.414Z,9.23
2023-05-15T11:01:35.361Z,9.40
2023-05-15T11:04:08.260Z,9.57
2023-05-15T11:06:35.211Z,8.88
2023-05-15T11:09:19.888Z,9.63
2023-05-15T11:11:52.529Z,9.90
2023-05-15T11:14:19.568Z,9.80
2023-05-15T11:16:55.089Z,10.15
2023-05-15T11:19:24.828Z,8.32
2023-05-15T11:21:58.148Z,8.68
2023-05-15T11:26:52.288Z,10.02
2023-05-15T11:29:19.338Z,9.80
2023-05-15T11:31:45.735Z,9.98
2023-05-15T11:34:12.247Z,9.63
2023-05-15T11:36:43.618Z,9.35
2023-05-15T11:39:10.602Z,8.77
2023-05-15T11:41:37.548Z,8.63
2023-05-15T11:44:04.006Z,8.63
2023-05-15T11:46:31.877Z,9.80
2023-05-15T11:48:59.501Z,8.52
2023-05-15T11:51:27.438Z,8.95
2023-05-15T11:56:21.668Z,8.55
2023-05-15T11:58:51.807Z,8.90
2023-05-15T12:01:18.543Z,9.50
2023-05-15T12:03:47.409Z,10.00
2023-05-15T12:06:14.201Z,9.05
2023-05-15T12:08:42.112Z,9.30
2023-05-15T12:11:08.773Z,10.20
2023-05-15T12:13:35.333Z,8.63
2023-05-15T12:16:03.388Z,8.98
2023-05-15T12:18:31.748Z,8.48
2023-05-15T12:20:58.387Z,8.48
2023-05-15T12:23:25.581Z,8.52
2023-05-15T12:25:55.097Z,9.75
2023-05-15T12:28:22.044Z,9.63
2023-05-15T12:30:49.359Z,8.95
2023-05-15T12:35:43.480Z,7.90
2023-05-15T12:38:13.849Z,8.63
2023-05-15T12:40:40.852Z,7.82
2023-05-15T12:43:07.761Z,9.15
2023-05-15T12:45:36.266Z,8.23
2023-05-15T12:48:03.922Z,8.35
2023-05-15T12:50:32.347Z,8.50
2023-05-15T12:53:00.661Z,8.38
2023-05-15T12:55:28.638Z,7.88
2023-05-15T12:57:58.779Z,8.25
2023-05-15T13:00:25.868Z,8.35
2023-05-15T13:05:19.275Z,7.60
2023-05-15T13:07:45.896Z,7.65
2023-05-15T13:10:12.550Z,7.55
2023-05-15T13:12:48.393Z,8.65
2023-05-15T13:15:31.691Z,7.93
2023-05-15T13:18:08.704Z,7.50
2023-05-15T13:20:35.226Z,8.02
2023-05-15T13:23:02.132Z,7.60
2023-05-15T13:25:31.356Z,7.75
2023-05-15T13:27:59.219Z,7.78
2023-05-15T13:30:26.261Z,7.63
2023-05-15T13:32:55.536Z,7.28
2023-05-15T13:35:22.546Z,7.50
2023-05-15T13:37:49.467Z,7.43
2023-05-15T13:40:15.946Z,7.15
2023-05-15T13:42:43.298Z,7.10
2023-05-15T13:45:10.818Z,6.75
2023-05-15T13:47:39.871Z,7.15
2023-05-15T13:50:07.706Z,7.05
2023-05-15T13:52:34.211Z,7.20
2023-05-15T13:55:00.825Z,7.65
2023-05-15T13:57:27.299Z,7.32
2023-05-15T13:59:53.689Z,7.43
2023-05-15T14:02:21.301Z,6.95
2023-05-15T14:04:48.142Z,6.57
2023-05-15T14:07:14.667Z,7.18
2023-05-15T14:09:41.179Z,6.68
2023-05-15T14:12:10.495Z,7.13
2023-05-15T14:14:37.298Z,8.25
2023-05-15T14:17:03.944Z,7.15
2023-05-15T14:19:30.591Z,6.90
2023-05-15T14:21:57.127Z,7.47
2023-05-15T14:24:23.630Z,6.72
2023-05-15T14:26:50.127Z,7.68
2023-05-15T14:29:16.628Z,6.93
2023-05-15T14:31:43.418Z,7.40
2023-05-15T14:34:10.066Z,7.07
2023-05-15T14:36:36.542Z,7.57
2023-05-15T14:39:04.175Z,6.57
2023-05-15T14:41:30.789Z,7.10
2023-05-15T14:43:57.206Z,7.00
2023-05-15T14:46:23.716Z,6.80
2023-05-15T14:48:50.219Z,7.57
2023-05-15T14:51:19.078Z,7.72
2023-05-15T14:53:46.159Z,7.57
2023-05-15T14:56:12.652Z,7.00
2023-05-15T14:58:39.179Z,7.10
2023-05-15T15:01:05.888Z,7.30
2023-05-15T15:03:34.090Z,7.50
2023-05-15T15:06:01.480Z,7.35
2023-05-15T15:08:28.100Z,7.13
2023-05-15T15:10:54.552Z,7.72
2023-05-15T15:13:21.178Z,7.18
2023-05-15T15:15:48.263Z,7.40
2023-05-15T15:18:14.830Z,6.97
2023-05-15T15:20:41.417Z,6.97
2023-05-15T15:23:07.886Z,7.90
2023-05-15T15:25:34.693Z,6.85
2023-05-15T15:28:01.996Z,7.15
2023-05-15T15:32:55.769Z,7.65
2023-05-15T15:37:48.972Z,7.03
2023-05-15T15:40:15.755Z,6.90
2023-05-15T15:42:42.231Z,6.57
2023-05-15T15:45:08.854Z,7.22
2023-05-15T15:47:35.441Z,6.30
2023-05-15T15:50:01.964Z,7.50
2023-05-15T15:52:28.472Z,7.00
2023-05-15T15:54:54.999Z,6.40
2023-05-15T15:57:21.876Z,6.75
2023-05-15T15:59:49.249Z,6.95
2023-05-15T16:02:15.868Z,7.40
2023-05-15T16:04:42.288Z,6.70
2023-05-15T16:07:08.731Z,6.72
2023-05-15T16:09:35.378Z,6.47
2023-05-15T16:12:03.320Z,6.90
2023-05-15T16:14:31.535Z,6.82
2023-05-15T16:16:58.575Z,6.38
2023-05-15T16:19:25.248Z,6.57
2023-05-15T16:21:51.824Z,7.32
2023-05-15T16:24:18.437Z,6.68
2023-05-15T16:26:44.916Z,6.22
2023-05-15T16:29:11.402Z,6.78
2023-05-15T16:31:38.438Z,6.72
2023-05-15T16:34:05.076Z,6.47
2023-05-15T16:36:32.016Z,6.55
2023-05-15T16:38:59.783Z,6.35
2023-05-15T16:41:26.483Z,6.53
2023-05-15T16:43:53.088Z,6.68
2023-05-15T16:46:19.637Z,6.60
2023-05-15T16:48:46.177Z,8.65
2023-05-15T16:51:12.671Z,6.88
2023-05-15T16:53:40.806Z,6.47
2023-05-15T16:56:07.602Z,6.45
2023-05-15T16:58:34.748Z,7.57
2023-05-15T17:01:01.329Z,6.10
2023-05-15T17:03:27.960Z,7.63
2023-05-15T17:05:54.457Z,7.50
2023-05-15T17:08:20.898Z,6.80
2023-05-15T17:10:47.465Z,6.70
2023-05-15T17:13:14.530Z,6.55
2023-05-15T17:15:41.345Z,6.65
2023-05-15T17:18:08.299Z,6.18
2023-05-15T17:20:34.827Z,6.43
2023-05-15T17:23:01.344Z,7.45
2023-05-15T17:25:27.924Z,7.30
2023-05-15T17:27:55.716Z,5.75
2023-05-15T17:30:22.338Z,7.30
2023-05-15T17:32:48.974Z,6.43
2023-05-15T17:35:15.841Z,6.53
2023-05-15T17:37:42.631Z,6.30
2023-05-15T17:40:09.297Z,6.30
2023-05-15T17:42:36.233Z,5.85
2023-05-15T17:45:03.052Z,5.68
2023-05-15T17:47:32.066Z,6.20
2023-05-15T17:49:58.519Z,5.47
2023-05-15T17:52:25.091Z,5.32
2023-05-15T17:54:51.575Z,4.45
2023-05-15T17:57:18.007Z,5.93
2023-05-15T17:59:44.591Z,5.28
2023-05-15T18:02:11.270Z,5.10
2023-05-15T18:04:37.909Z,5.43
2023-05-15T18:07:04.517Z,5.95
2023-05-15T18:09:31.036Z,5.80
2023-05-15T18:11:57.855Z,5.03
2023-05-15T18:14:24.432Z,5.38
2023-05-15T18:16:51.220Z,5.15
2023-05-15T18:19:18.233Z,4.32
2023-05-15T18:21:44.867Z,4.88
2023-05-15T18:24:11.400Z,5.78
2023-05-15T18:26:38.110Z,5.68
2023-05-15T18:29:04.860Z,6.18
2023-05-15T18:31:31.465Z,4.93
2023-05-15T18:33:57.925Z,5.22
2023-05-15T18:36:24.411Z,5.90
2023-05-15T18:38:50.896Z,5.45
2023-05-15T18:41:17.399Z,5.03
2023-05-15T18:43:43.843Z,5.38
2023-05-15T18:46:10.360Z,5.43
2023-05-15T18:48:36.877Z,5.22
2023-05-15T18:51:03.876Z,5.68
2023-05-15T18:53:34.792Z,4.85
2023-05-15T18:56:01.279Z,6.70
2023-05-15T18:58:27.755Z,4.93
2023-05-15T19:00:56.367Z,5.43
2023-05-15T19:03:22.908Z,5.60
2023-05-15T19:05:49.511Z,5.38
2023-05-15T19:08:16.005Z,5.45
2023-05-15T19:10:47.247Z,4.78
2023-05-15T19:13:13.717Z,4.63
2023-05-15T19:15:40.149Z,4.47
2023-05-15T19:18:06.702Z,7.18
2023-05-15T19:20:33.986Z,3.85
2023-05-15T19:23:00.489Z,3.90
2023-05-15T19:25:27.103Z,5.82
2023-05-15T19:27:54.290Z,3.38
2023-05-15T19:30:20.992Z,6.88
2023-05-15T19:32:47.498Z,5.00
2023-05-15T19:35:14.141Z,4.45
2023-05-15T19:37:40.806Z,4.43
2023-05-15T19:40:07.575Z,5.25
2023-05-15T19:42:34.127Z,5.35
2023-05-15T19:45:00.566Z,5.05
2023-05-15T19:47:27.437Z,5.00
2023-05-15T19:49:53.995Z,4.75
2023-05-15T19:52:20.458Z,4.93
2023-05-15T19:54:46.952Z,3.47
2023-05-15T19:57:13.353Z,4.85
2023-05-15T19:59:39.862Z,4.15
2023-05-15T20:02:10.458Z,3.60
2023-05-15T20:04:37.620Z,3.50
2023-05-15T20:07:04.410Z,3.38
2023-05-15T20:09:30.976Z,4.00
2023-05-15T20:11:57.436Z,4.45
2023-05-15T20:14:23.995Z,4.93
2023-05-15T20:16:50.536Z,3.92
2023-05-15T20:19:17.104Z,2.42
2023-05-15T20:21:43.794Z,3.45
2023-05-15T20:24:10.331Z,3.13
2023-05-15T20:26:36.955Z,3.63
2023-05-15T20:29:03.589Z,3.30
2023-05-15T20:31:30.309Z,2.78
2023-05-15T20:33:56.975Z,3.30
2023-05-15T20:36:25.568Z,3.47
2023-05-15T20:38:55.916Z,3.67
2023-05-15T20:41:23.191Z,3.63
2023-05-15T20:46:17.062Z,2.72
2023-05-15T20:51:10.204Z,2.78
2023-05-15T20:53:36.666Z,3.05
2023-05-15T20:56:03.302Z,2.90
2023-05-15T20:58:29.743Z,4.40
2023-05-15T21:00:56.389Z,3.63
2023-05-15T21:03:22.981Z,4.57
2023-05-15T21:05:49.563Z,3.60
2023-05-15T21:08:16.416Z,3.40
2023-05-15T21:10:45.280Z,2.60
2023-05-15T21:13:11.985Z,3.92
2023-05-15T21:15:39.662Z,4.07
2023-05-15T21:18:06.214Z,2.30
2023-05-15T21:20:35.078Z,3.95
2023-05-15T21:23:01.821Z,4.07
2023-05-15T21:25:28.313Z,3.45
2023-05-15T21:27:55.376Z,3.03
2023-05-15T21:30:21.894Z,3.45
2023-05-15T21:32:48.357Z,2.83
2023-05-15T21:35:14.840Z,2.78
2023-05-15T21:37:41.261Z,2.85
2023-05-15T21:40:08.026Z,2.75
2023-05-15T21:42:34.541Z,2.95
2023-05-15T21:45:01.003Z,3.33
2023-05-15T21:47:27.418Z,2.90
2023-05-15T21:49:53.923Z,2.33
2023-05-15T21:52:20.351Z,3.78
2023-05-15T21:54:46.740Z,2.92
2023-05-15T21:57:13.138Z,4.57
2023-05-15T21:59:39.604Z,3.53
2023-05-15T22:02:06.541Z,3.72
2023-05-15T22:04:33.214Z,3.58
2023-05-15T22:06:59.608Z,3.67
2023-05-15T22:09:26.042Z,3.05
2023-05-15T22:11:52.450Z,3.38
2023-05-15T22:14:18.860Z,3.78
2023-05-15T22:16:45.469Z,4.22
2023-05-15T22:19:25.058Z,3.88
2023-05-15T22:21:58.662Z,3.20
2023-05-15T22:24:25.103Z,1.90
2023-05-15T22:26:51.499Z,4.78
2023-05-15T22:29:17.926Z,3.55
2023-05-15T22:31:44.386Z,3.95
2023-05-15T22:34:11.021Z,4.25
2023-05-15T22:36:37.590Z,3.17
2023-05-15T22:39:07.718Z,4.55
2023-05-15T22:41:34.212Z,3.67
2023-05-15T22:44:00.797Z,4.13
2023-05-15T22:46:27.531Z,2.88
2023-05-15T22:48:54.920Z,2.53
2023-05-15T22:51:22.215Z,2.97
2023-05-15T22:53:48.787Z,2.58
2023-05-15T22:56:15.269Z,4.75
2023-05-15T22:58:41.902Z,4.50
2023-05-15T23:01:09.191Z,2.42
2023-05-15T23:03:35.699Z,3.80
2023-05-15T23:06:02.192Z,4.32
2023-05-15T23:08:28.764Z,3.75
2023-05-15T23:10:56.240Z,3.45
2023-05-15T23:13:23.539Z,3.40
2023-05-15T23:15:50.020Z,4.00
2023-05-15T23:18:17.292Z,3.45
2023-05-15T23:20:46.030Z,5.18
2023-05-15T23:23:12.501Z,3.90
2023-05-15T23:25:39.035Z,3.92
2023-05-15T23:28:05.534Z,5.20
2023-05-15T23:30:32.138Z,3.10
2023-05-15T23:32:58.652Z,4.20
2023-05-15T23:35:25.266Z,3.35
2023-05-15T23:37:51.911Z,1.92
2023-05-15T23:40:18.417Z,4.63
2023-05-15T23:42:44.920Z,4.45
2023-05-15T23:45:11.437Z,2.53
2023-05-15T23:47:37.894Z,2.53
2023-05-15T23:50:04.694Z,3.88
2023-05-15T23:52:36.479Z,4.88
2023-05-15T23:55:03.345Z,4.00
2023-05-15T23:57:29.782Z,5.57
2023-05-15T23:59:56.238Z,3.38
